LDSP/SPU METAR and TAF weather

Enter ICAO airport designator
Station Type Date Time Source
LDSP METAR 2023/01/30 10:30 UTC NOAA

LDSP 301030Z VRB06KT CAVOK 10/M03 Q1018 NOSIG


Station Type Date Time Source
LDSP Decoded METAR 2023/01/30 10:30 UTC NOAA

Split / Resnik, Croatia (LDSP) 43-32N 016-18E 21M
Jan 30, 2023 - 05:30 AM EST / 2023.01.30 1030 UTC
Wind: Variable at 7 MPH (6 KT):0
Visibility: greater than 7 mile(s):0
Temperature: 50 F (10 C)
Dew Point: 26 F (-3 C)
Relative Humidity: 39%
Pressure (altimeter): 30.06 in. Hg (1018 hPa)
ob: LDSP 301030Z VRB06KT CAVOK 10/M03 Q1018 NOSIG
cycle: 10

Station Type Date Time Source
LDSP TAF 2023/01/30 06:27 UTC NOAA

TAF LDSP 300525Z 3006/3106 34006KT CAVOK TX10/3013Z TN02/3006Z

Example: see airport list